sensor_id;sensor_type;location;lat;lon;timestamp;pressure;altitude;pressure_sealevel;temperature;humidity
30343;BME280;17145;49.902;8.680;'2023-05-12 01:59:32';99820;;;12;61
30343;BME280;17145;49.902;8.680;'2023-05-12 02:02:00';99810;;;13;61
30343;BME280;17145;49.902;8.680;'2023-05-12 02:04:27';99820;;;13;61
30343;BME280;17145;49.902;8.680;'2023-05-12 02:06:55';99820;;;13;61
30343;BME280;17145;49.902;8.680;'2023-05-12 02:09:22';99820;;;13;61
30343;BME280;17145;49.902;8.680;'2023-05-12 02:11:49';99820;;;13;61
30343;BME280;17145;49.902;8.680;'2023-05-12 02:14:17';99820;;;13;61
30343;BME280;17145;49.902;8.680;'2023-05-12 02:16:44';99820;;;12;62
30343;BME280;17145;49.902;8.680;'2023-05-12 02:19:11';99820;;;13;61
30343;BME280;17145;49.902;8.680;'2023-05-12 02:21:39';99810;;;13;61
30343;BME280;17145;49.902;8.680;'2023-05-12 02:24:06';99810;;;13;61
30343;BME280;17145;49.902;8.680;'2023-05-12 02:26:34';99810;;;12;61
30343;BME280;17145;49.902;8.680;'2023-05-12 02:29:01';99810;;;13;61
30343;BME280;17145;49.902;8.680;'2023-05-12 02:31:29';99810;;;13;61
30343;BME280;17145;49.902;8.680;'2023-05-12 02:33:56';99810;;;13;61
30343;BME280;17145;49.902;8.680;'2023-05-12 02:36:25';99810;;;13;61
30343;BME280;17145;49.902;8.680;'2023-05-12 02:38:52';99810;;;13;61
30343;BME280;17145;49.902;8.680;'2023-05-12 02:41:20';99810;;;13;62
30343;BME280;17145;49.902;8.680;'2023-05-12 02:43:47';99810;;;13;62
30343;BME280;17145;49.902;8.680;'2023-05-12 02:46:16';99800;;;13;62
30343;BME280;17145;49.902;8.680;'2023-05-12 02:48:43';99800;;;13;62
30343;BME280;17145;49.902;8.680;'2023-05-12 02:51:14';99800;;;13;62
30343;BME280;17145;49.902;8.680;'2023-05-12 02:53:42';99800;;;13;61
30343;BME280;17145;49.902;8.680;'2023-05-12 02:56:11';99800;;;12;61
30343;BME280;17145;49.902;8.680;'2023-05-12 02:58:38';99800;;;12;61
30343;BME280;17145;49.902;8.680;'2023-05-12 03:01:06';99800;;;12;61
30343;BME280;17145;49.902;8.680;'2023-05-12 03:03:33';99800;;;13;61
30343;BME280;17145;49.902;8.680;'2023-05-12 03:06:11';99800;;;13;61
30343;BME280;17145;49.902;8.680;'2023-05-12 03:08:39';99800;;;12;61
30343;BME280;17145;49.902;8.680;'2023-05-12 03:11:07';99800;;;13;61
30343;BME280;17145;49.902;8.680;'2023-05-12 03:13:34';99800;;;13;61
30343;BME280;17145;49.902;8.680;'2023-05-12 03:16:03';99800;;;13;61
30343;BME280;17145;49.902;8.680;'2023-05-12 03:18:34';99800;;;13;61
30343;BME280;17145;49.902;8.680;'2023-05-12 03:21:03';99800;;;13;61
30343;BME280;17145;49.902;8.680;'2023-05-12 03:23:38';99800;;;13;61
30343;BME280;17145;49.902;8.680;'2023-05-12 03:26:07';99800;;;12;61
30343;BME280;17145;49.902;8.680;'2023-05-12 03:28:36';99800;;;13;61
30343;BME280;17145;49.902;8.680;'2023-05-12 03:31:05';99800;;;13;61
30343;BME280;17145;49.902;8.680;'2023-05-12 03:33:34';99800;;;13;61
30343;BME280;17145;49.902;8.680;'2023-05-12 03:36:01';99800;;;13;61
30343;BME280;17145;49.902;8.680;'2023-05-12 03:38:29';99800;;;12;61
30343;BME280;17145;49.902;8.680;'2023-05-12 03:40:56';99800;;;12;61
30343;BME280;17145;49.902;8.680;'2023-05-12 03:43:23';99810;;;12;61
30343;BME280;17145;49.902;8.680;'2023-05-12 03:45:51';99810;;;12;61
30343;BME280;17145;49.902;8.680;'2023-05-12 03:48:18';99810;;;12;61
30343;BME280;17145;49.902;8.680;'2023-05-12 03:50:45';99810;;;13;61
30343;BME280;17145;49.902;8.680;'2023-05-12 03:53:13';99810;;;13;61
30343;BME280;17145;49.902;8.680;'2023-05-12 03:55:40';99810;;;12;61
30343;BME280;17145;49.902;8.680;'2023-05-12 03:58:07';99820;;;12;61
30343;BME280;17145;49.902;8.680;'2023-05-12 04:00:35';99820;;;13;61
30343;BME280;17145;49.902;8.680;'2023-05-12 04:03:02';99810;;;12;61
30343;BME280;17145;49.902;8.680;'2023-05-12 04:05:30';99820;;;13;61
30343;BME280;17145;49.902;8.680;'2023-05-12 04:07:57';99820;;;12;61
30343;BME280;17145;49.902;8.680;'2023-05-12 04:10:25';99820;;;12;61
30343;BME280;17145;49.902;8.680;'2023-05-12 04:12:52';99820;;;12;61
30343;BME280;17145;49.902;8.680;'2023-05-12 04:15:19';99820;;;13;61
30343;BME280;17145;49.902;8.680;'2023-05-12 04:17:47';99830;;;12;61
30343;BME280;17145;49.902;8.680;'2023-05-12 04:20:14';99830;;;12;61
30343;BME280;17145;49.902;8.680;'2023-05-12 04:22:42';99820;;;13;61
30343;BME280;17145;49.902;8.680;'2023-05-12 04:25:09';99830;;;12;61
30343;BME280;17145;49.902;8.680;'2023-05-12 04:27:37';99830;;;13;61
30343;BME280;17145;49.902;8.680;'2023-05-12 04:30:06';99830;;;13;61
30343;BME280;17145;49.902;8.680;'2023-05-12 04:32:33';99830;;;12;61
30343;BME280;17145;49.902;8.680;'2023-05-12 04:35:00';99830;;;12;61
30343;BME280;17145;49.902;8.680;'2023-05-12 04:37:28';99830;;;13;61
30343;BME280;17145;49.902;8.680;'2023-05-12 04:39:55';99830;;;12;61
30343;BME280;17145;49.902;8.680;'2023-05-12 04:42:22';99830;;;13;61
30343;BME280;17145;49.902;8.680;'2023-05-12 04:44:49';99830;;;12;61
30343;BME280;17145;49.902;8.680;'2023-05-12 04:47:17';99820;;;13;61
30343;BME280;17145;49.902;8.680;'2023-05-12 04:49:44';99820;;;13;61
30343;BME280;17145;49.902;8.680;'2023-05-12 04:52:12';99820;;;13;61
30343;BME280;17145;49.902;8.680;'2023-05-12 04:54:39';99820;;;12;61
30343;BME280;17145;49.902;8.680;'2023-05-12 04:57:06';99820;;;13;61
30343;BME280;17145;49.902;8.680;'2023-05-12 04:59:34';99820;;;13;61
30343;BME280;17145;49.902;8.680;'2023-05-12 05:02:01';99830;;;13;61
30343;BME280;17145;49.902;8.680;'2023-05-12 05:04:29';99830;;;12;61
30343;BME280;17145;49.902;8.680;'2023-05-12 05:06:56';99820;;;12;61
30343;BME280;17145;49.902;8.680;'2023-05-12 05:09:23';99820;;;12;61
30343;BME280;17145;49.902;8.680;'2023-05-12 05:11:51';99820;;;12;61
30343;BME280;17145;49.902;8.680;'2023-05-12 05:14:18';99820;;;12;61
30343;BME280;17145;49.902;8.680;'2023-05-12 05:16:45';99830;;;12;61
30343;BME280;17145;49.902;8.680;'2023-05-12 05:19:13';99820;;;12;61
30343;BME280;17145;49.902;8.680;'2023-05-12 05:21:40';99830;;;13;61
30343;BME280;17145;49.902;8.680;'2023-05-12 05:24:08';99830;;;12;61
30343;BME280;17145;49.902;8.680;'2023-05-12 05:26:35';99830;;;12;61
30343;BME280;17145;49.902;8.680;'2023-05-12 05:29:02';99830;;;12;61
30343;BME280;17145;49.902;8.680;'2023-05-12 05:31:29';99830;;;12;61
30343;BME280;17145;49.902;8.680;'2023-05-12 05:33:57';99830;;;12;61
30343;BME280;17145;49.902;8.680;'2023-05-12 05:36:24';99830;;;12;61
30343;BME280;17145;49.902;8.680;'2023-05-12 05:38:51';99830;;;12;61
30343;BME280;17145;49.902;8.680;'2023-05-12 05:41:19';99830;;;12;61
30343;BME280;17145;49.902;8.680;'2023-05-12 05:43:46';99830;;;12;61
30343;BME280;17145;49.902;8.680;'2023-05-12 05:46:13';99830;;;12;61
30343;BME280;17145;49.902;8.680;'2023-05-12 05:48:41';99830;;;12;61
30343;BME280;17145;49.902;8.680;'2023-05-12 05:51:08';99820;;;12;61
30343;BME280;17145;49.902;8.680;'2023-05-12 05:53:36';99820;;;12;61
30343;BME280;17145;49.902;8.680;'2023-05-12 05:56:04';99820;;;12;61
30343;BME280;17145;49.902;8.680;'2023-05-12 05:58:32';99820;;;12;60
30343;BME280;17145;49.902;8.680;'2023-05-12 06:00:59';99820;;;12;60
30343;BME280;17145;49.902;8.680;'2023-05-12 06:03:27';99820;;;12;60
30343;BME280;17145;49.902;8.680;'2023-05-12 06:05:57';99830;;;12;61
30343;BME280;17145;49.902;8.680;'2023-05-12 06:08:25';99830;;;12;60
30343;BME280;17145;49.902;8.680;'2023-05-12 06:10:54';99830;;;12;61
30343;BME280;17145;49.902;8.680;'2023-05-12 06:13:21';99830;;;12;60
30343;BME280;17145;49.902;8.680;'2023-05-12 06:15:49';99830;;;12;61
30343;BME280;17145;49.902;8.680;'2023-05-12 06:18:16';99830;;;12;61
30343;BME280;17145;49.902;8.680;'2023-05-12 06:20:44';99830;;;12;61
30343;BME280;17145;49.902;8.680;'2023-05-12 06:23:11';99830;;;12;61
30343;BME280;17145;49.902;8.680;'2023-05-12 06:25:39';99840;;;12;60
30343;BME280;17145;49.902;8.680;'2023-05-12 06:28:07';99830;;;12;60
30343;BME280;17145;49.902;8.680;'2023-05-12 06:30:35';99840;;;13;60
30343;BME280;17145;49.902;8.680;'2023-05-12 06:33:02';99840;;;12;60
30343;BME280;17145;49.902;8.680;'2023-05-12 06:35:30';99840;;;12;60
30343;BME280;17145;49.902;8.680;'2023-05-12 06:37:57';99840;;;12;60
30343;BME280;17145;49.902;8.680;'2023-05-12 06:40:24';99850;;;12;60
30343;BME280;17145;49.902;8.680;'2023-05-12 06:42:51';99850;;;12;60
30343;BME280;17145;49.902;8.680;'2023-05-12 06:45:19';99850;;;12;60
30343;BME280;17145;49.902;8.680;'2023-05-12 06:47:46';99850;;;12;61
30343;BME280;17145;49.902;8.680;'2023-05-12 06:50:14';99840;;;12;61
30343;BME280;17145;49.902;8.680;'2023-05-12 06:52:41';99840;;;12;61
30343;BME280;17145;49.902;8.680;'2023-05-12 06:55:09';99850;;;12;61
30343;BME280;17145;49.902;8.680;'2023-05-12 06:57:36';99860;;;12;61
30343;BME280;17145;49.902;8.680;'2023-05-12 07:00:05';99860;;;12;61
30343;BME280;17145;49.902;8.680;'2023-05-12 07:02:32';99860;;;12;61
30343;BME280;17145;49.902;8.680;'2023-05-12 07:04:59';99860;;;12;61
30343;BME280;17145;49.902;8.680;'2023-05-12 07:07:26';99860;;;12;61
30343;BME280;17145;49.902;8.680;'2023-05-12 07:09:54';99870;;;12;61
30343;BME280;17145;49.902;8.680;'2023-05-12 07:12:21';99870;;;12;61
30343;BME280;17145;49.902;8.680;'2023-05-12 07:14:48';99870;;;12;61
30343;BME280;17145;49.902;8.680;'2023-05-12 07:17:16';99880;;;12;61
30343;BME280;17145;49.902;8.680;'2023-05-12 07:19:43';99880;;;13;61
30343;BME280;17145;49.902;8.680;'2023-05-12 07:22:11';99880;;;13;61
30343;BME280;17145;49.902;8.680;'2023-05-12 07:24:38';99880;;;13;61
30343;BME280;17145;49.902;8.680;'2023-05-12 07:27:05';99880;;;13;61
30343;BME280;17145;49.902;8.680;'2023-05-12 07:29:33';99880;;;13;61
30343;BME280;17145;49.902;8.680;'2023-05-12 07:32:00';99880;;;12;61
30343;BME280;17145;49.902;8.680;'2023-05-12 07:34:27';99890;;;13;61
30343;BME280;17145;49.902;8.680;'2023-05-12 07:36:55';99890;;;13;61
30343;BME280;17145;49.902;8.680;'2023-05-12 07:39:22';99890;;;12;61
30343;BME280;17145;49.902;8.680;'2023-05-12 07:41:50';99890;;;12;61
30343;BME280;17145;49.902;8.680;'2023-05-12 07:44:17';99890;;;13;61
30343;BME280;17145;49.902;8.680;'2023-05-12 07:46:44';99890;;;13;61
30343;BME280;17145;49.902;8.680;'2023-05-12 07:49:11';99900;;;12;61
30343;BME280;17145;49.902;8.680;'2023-05-12 07:51:39';99900;;;12;61
30343;BME280;17145;49.902;8.680;'2023-05-12 07:54:06';99900;;;12;61
30343;BME280;17145;49.902;8.680;'2023-05-12 07:56:34';99900;;;12;61
30343;BME280;17145;49.902;8.680;'2023-05-12 07:59:01';99900;;;12;61
30343;BME280;17145;49.902;8.680;'2023-05-12 08:01:28';99900;;;13;61
30343;BME280;17145;49.902;8.680;'2023-05-12 08:03:56';99900;;;12;61
30343;BME280;17145;49.902;8.680;'2023-05-12 08:06:23';99900;;;13;61
30343;BME280;17145;49.902;8.680;'2023-05-12 08:08:51';99910;;;13;61
30343;BME280;17145;49.902;8.680;'2023-05-12 08:11:18';99910;;;13;61
30343;BME280;17145;49.902;8.680;'2023-05-12 08:13:45';99910;;;12;61
30343;BME280;17145;49.902;8.680;'2023-05-12 08:16:13';99910;;;13;60
30343;BME280;17145;49.902;8.680;'2023-05-12 08:18:40';99910;;;13;61
30343;BME280;17145;49.902;8.680;'2023-05-12 08:21:08';99910;;;13;61
30343;BME280;17145;49.902;8.680;'2023-05-12 08:23:35';99920;;;13;61
30343;BME280;17145;49.902;8.680;'2023-05-12 08:26:03';99920;;;13;61
30343;BME280;17145;49.902;8.680;'2023-05-12 08:28:30';99920;;;13;61
30343;BME280;17145;49.902;8.680;'2023-05-12 08:30:57';99920;;;13;61
30343;BME280;17145;49.902;8.680;'2023-05-12 08:33:25';99920;;;13;61
30343;BME280;17145;49.902;8.680;'2023-05-12 08:35:52';99920;;;13;61
30343;BME280;17145;49.902;8.680;'2023-05-12 08:38:19';99930;;;13;61
30343;BME280;17145;49.902;8.680;'2023-05-12 08:40:47';99930;;;13;61
30343;BME280;17145;49.902;8.680;'2023-05-12 08:43:14';99930;;;13;60
30343;BME280;17145;49.902;8.680;'2023-05-12 08:45:42';99930;;;13;60
30343;BME280;17145;49.902;8.680;'2023-05-12 08:48:10';99930;;;13;60
30343;BME280;17145;49.902;8.680;'2023-05-12 08:50:37';99940;;;13;60
30343;BME280;17145;49.902;8.680;'2023-05-12 08:53:04';99930;;;14;60
30343;BME280;17145;49.902;8.680;'2023-05-12 08:55:32';99930;;;14;60
30343;BME280;17145;49.902;8.680;'2023-05-12 08:57:59';99940;;;14;59
30343;BME280;17145;49.902;8.680;'2023-05-12 09:00:26';99940;;;13;60
30343;BME280;17145;49.902;8.680;'2023-05-12 09:02:54';99940;;;14;59
30343;BME280;17145;49.902;8.680;'2023-05-12 09:05:22';99940;;;14;59
30343;BME280;17145;49.902;8.680;'2023-05-12 09:07:49';99940;;;14;59
30343;BME280;17145;49.902;8.680;'2023-05-12 09:10:16';99930;;;14;59
30343;BME280;17145;49.902;8.680;'2023-05-12 09:12:44';99930;;;14;59
30343;BME280;17145;49.902;8.680;'2023-05-12 09:15:11';99930;;;14;60
30343;BME280;17145;49.902;8.680;'2023-05-12 09:17:39';99930;;;14;59
30343;BME280;17145;49.902;8.680;'2023-05-12 09:20:07';99940;;;14;59
30343;BME280;17145;49.902;8.680;'2023-05-12 09:22:35';99940;;;14;59
30343;BME280;17145;49.902;8.680;'2023-05-12 09:25:02';99940;;;14;59
30343;BME280;17145;49.902;8.680;'2023-05-12 09:27:30';99940;;;14;60
30343;BME280;17145;49.902;8.680;'2023-05-12 09:29:57';99950;;;14;59
30343;BME280;17145;49.902;8.680;'2023-05-12 09:32:24';99950;;;14;59
30343;BME280;17145;49.902;8.680;'2023-05-12 09:34:52';99950;;;13;59
30343;BME280;17145;49.902;8.680;'2023-05-12 09:37:19';99950;;;14;59
30343;BME280;17145;49.902;8.680;'2023-05-12 09:39:46';99950;;;14;59
30343;BME280;17145;49.902;8.680;'2023-05-12 09:42:14';99950;;;14;59
30343;BME280;17145;49.902;8.680;'2023-05-12 09:44:42';99950;;;14;59
30343;BME280;17145;49.902;8.680;'2023-05-12 09:47:09';99950;;;14;59
30343;BME280;17145;49.902;8.680;'2023-05-12 09:49:36';99950;;;14;59
30343;BME280;17145;49.902;8.680;'2023-05-12 09:52:04';99950;;;14;59
30343;BME280;17145;49.902;8.680;'2023-05-12 09:54:31';99950;;;14;59
30343;BME280;17145;49.902;8.680;'2023-05-12 09:56:59';99950;;;14;59
30343;BME280;17145;49.902;8.680;'2023-05-12 09:59:26';99950;;;14;59
30343;BME280;17145;49.902;8.680;'2023-05-12 10:01:53';99950;;;14;59
30343;BME280;17145;49.902;8.680;'2023-05-12 10:04:21';99950;;;14;59
30343;BME280;17145;49.902;8.680;'2023-05-12 10:06:48';99950;;;14;59
30343;BME280;17145;49.902;8.680;'2023-05-12 10:09:15';99950;;;13;59
30343;BME280;17145;49.902;8.680;'2023-05-12 10:11:43';99950;;;14;59
30343;BME280;17145;49.902;8.680;'2023-05-12 10:14:10';99950;;;14;58
30343;BME280;17145;49.902;8.680;'2023-05-12 10:16:38';99950;;;14;59
30343;BME280;17145;49.902;8.680;'2023-05-12 10:19:05';99950;;;14;59
30343;BME280;17145;49.902;8.680;'2023-05-12 10:21:32';99940;;;14;59
30343;BME280;17145;49.902;8.680;'2023-05-12 10:24:00';99940;;;14;59
30343;BME280;17145;49.902;8.680;'2023-05-12 10:26:27';99940;;;14;58
30343;BME280;17145;49.902;8.680;'2023-05-12 10:28:54';99940;;;14;58
30343;BME280;17145;49.902;8.680;'2023-05-12 10:31:22';99940;;;14;58
30343;BME280;17145;49.902;8.680;'2023-05-12 10:33:49';99940;;;14;58
30343;BME280;17145;49.902;8.680;'2023-05-12 10:36:17';99940;;;14;58
30343;BME280;17145;49.902;8.680;'2023-05-12 10:38:44';99940;;;14;58
30343;BME280;17145;49.902;8.680;'2023-05-12 10:41:18';99950;;;14;58
30343;BME280;17145;49.902;8.680;'2023-05-12 10:43:49';99950;;;14;57
30343;BME280;17145;49.902;8.680;'2023-05-12 10:46:17';99950;;;14;58
30343;BME280;17145;49.902;8.680;'2023-05-12 10:48:45';99950;;;14;58
30343;BME280;17145;49.902;8.680;'2023-05-12 10:51:13';99950;;;14;58
30343;BME280;17145;49.902;8.680;'2023-05-12 10:53:41';99950;;;14;57
30343;BME280;17145;49.902;8.680;'2023-05-12 10:56:09';99950;;;15;57
30343;BME280;17145;49.902;8.680;'2023-05-12 10:58:37';99950;;;14;56
30343;BME280;17145;49.902;8.680;'2023-05-12 11:01:05';99950;;;15;56
30343;BME280;17145;49.902;8.680;'2023-05-12 11:03:33';99950;;;15;57
30343;BME280;17145;49.902;8.680;'2023-05-12 11:06:01';99960;;;15;56
30343;BME280;17145;49.902;8.680;'2023-05-12 11:08:29';99950;;;15;56
30343;BME280;17145;49.902;8.680;'2023-05-12 11:10:58';99960;;;15;56
30343;BME280;17145;49.902;8.680;'2023-05-12 11:13:34';99960;;;15;55
30343;BME280;17145;49.902;8.680;'2023-05-12 11:16:03';99960;;;15;56
30343;BME280;17145;49.902;8.680;'2023-05-12 11:18:44';99960;;;15;56
30343;BME280;17145;49.902;8.680;'2023-05-12 11:21:11';99960;;;15;56
30343;BME280;17145;49.902;8.680;'2023-05-12 11:23:38';99960;;;15;56
30343;BME280;17145;49.902;8.680;'2023-05-12 11:26:06';99960;;;15;55
30343;BME280;17145;49.902;8.680;'2023-05-12 11:28:35';99960;;;15;55
30343;BME280;17145;49.902;8.680;'2023-05-12 11:31:14';99960;;;15;54
30343;BME280;17145;49.902;8.680;'2023-05-12 11:33:41';99960;;;15;55
30343;BME280;17145;49.902;8.680;'2023-05-12 11:36:08';99960;;;15;55
30343;BME280;17145;49.902;8.680;'2023-05-12 11:38:36';99960;;;15;55
30343;BME280;17145;49.902;8.680;'2023-05-12 11:41:03';99960;;;15;55
30343;BME280;17145;49.902;8.680;'2023-05-12 11:43:31';99960;;;15;55
30343;BME280;17145;49.902;8.680;'2023-05-12 11:46:04';99960;;;15;55
30343;BME280;17145;49.902;8.680;'2023-05-12 11:48:31';99960;;;15;56
30343;BME280;17145;49.902;8.680;'2023-05-12 11:50:59';99960;;;14;56
30343;BME280;17145;49.902;8.680;'2023-05-12 11:53:26';99960;;;15;56
30343;BME280;17145;49.902;8.680;'2023-05-12 11:55:53';99960;;;15;56
30343;BME280;17145;49.902;8.680;'2023-05-12 11:58:23';99960;;;15;56
30343;BME280;17145;49.902;8.680;'2023-05-12 12:00:52';99960;;;15;56
30343;BME280;17145;49.902;8.680;'2023-05-12 12:03:25';99960;;;15;56
30343;BME280;17145;49.902;8.680;'2023-05-12 12:05:57';99960;;;14;56
30343;BME280;17145;49.902;8.680;'2023-05-12 12:08:31';99960;;;15;56
30343;BME280;17145;49.902;8.680;'2023-05-12 12:11:00';99960;;;15;56
30343;BME280;17145;49.902;8.680;'2023-05-12 12:13:28';99960;;;15;56
30343;BME280;17145;49.902;8.680;'2023-05-12 12:15:57';99960;;;14;57
30343;BME280;17145;49.902;8.680;'2023-05-12 12:18:25';99960;;;15;57
30343;BME280;17145;49.902;8.680;'2023-05-12 12:20:52';99960;;;15;57
30343;BME280;17145;49.902;8.680;'2023-05-12 12:23:21';99960;;;15;57
30343;BME280;17145;49.902;8.680;'2023-05-12 12:25:48';99960;;;15;57
30343;BME280;17145;49.902;8.680;'2023-05-12 12:28:16';99960;;;15;57
30343;BME280;17145;49.902;8.680;'2023-05-12 12:30:45';99960;;;15;57
30343;BME280;17145;49.902;8.680;'2023-05-12 12:33:13';99960;;;15;57
30343;BME280;17145;49.902;8.680;'2023-05-12 12:35:42';99960;;;15;57
30343;BME280;17145;49.902;8.680;'2023-05-12 12:38:13';99960;;;15;56
30343;BME280;17145;49.902;8.680;'2023-05-12 12:40:50';99960;;;15;55
30343;BME280;17145;49.902;8.680;'2023-05-12 12:46:03';99960;;;15;54
30343;BME280;17145;49.902;8.680;'2023-05-12 12:48:30';99960;;;15;53
30343;BME280;17145;49.902;8.680;'2023-05-12 12:51:07';99960;;;15;53
30343;BME280;17145;49.902;8.680;'2023-05-12 12:53:35';99960;;;15;54
30343;BME280;17145;49.902;8.680;'2023-05-12 12:56:03';99960;;;15;53
30343;BME280;17145;49.902;8.680;'2023-05-12 12:58:31';99960;;;15;54
30343;BME280;17145;49.902;8.680;'2023-05-12 13:01:05';99970;;;15;54
30343;BME280;17145;49.902;8.680;'2023-05-12 13:03:32';99960;;;15;55
30343;BME280;17145;49.902;8.680;'2023-05-12 13:06:02';99960;;;15;55
30343;BME280;17145;49.902;8.680;'2023-05-12 13:08:30';99960;;;15;55
30343;BME280;17145;49.902;8.680;'2023-05-12 13:10:57';99960;;;15;55
30343;BME280;17145;49.902;8.680;'2023-05-12 13:13:25';99970;;;15;55
30343;BME280;17145;49.902;8.680;'2023-05-12 13:15:55';99970;;;15;56
30343;BME280;17145;49.902;8.680;'2023-05-12 13:18:22';99970;;;15;55
30343;BME280;17145;49.902;8.680;'2023-05-12 13:20:50';99970;;;15;55
30343;BME280;17145;49.902;8.680;'2023-05-12 13:23:25';99970;;;15;54
30343;BME280;17145;49.902;8.680;'2023-05-12 13:25:52';99960;;;15;54
30343;BME280;17145;49.902;8.680;'2023-05-12 13:28:20';99970;;;15;54
30343;BME280;17145;49.902;8.680;'2023-05-12 13:30:50';99970;;;15;54
30343;BME280;17145;49.902;8.680;'2023-05-12 13:33:19';99960;;;16;54
30343;BME280;17145;49.902;8.680;'2023-05-12 13:35:47';99960;;;16;53
30343;BME280;17145;49.902;8.680;'2023-05-12 13:38:14';99960;;;16;53
30343;BME280;17145;49.902;8.680;'2023-05-12 13:40:42';99960;;;16;52
30343;BME280;17145;49.902;8.680;'2023-05-12 13:43:10';99960;;;16;52
30343;BME280;17145;49.902;8.680;'2023-05-12 13:45:38';99960;;;16;52
30343;BME280;17145;49.902;8.680;'2023-05-12 13:48:06';99960;;;16;52
30343;BME280;17145;49.902;8.680;'2023-05-12 13:50:36';99950;;;16;50
30343;BME280;17145;49.902;8.680;'2023-05-12 13:53:04';99950;;;16;52
30343;BME280;17145;49.902;8.680;'2023-05-12 13:55:31';99950;;;16;50
30343;BME280;17145;49.902;8.680;'2023-05-12 13:58:00';99960;;;16;50
30343;BME280;17145;49.902;8.680;'2023-05-12 14:00:31';99960;;;16;50
30343;BME280;17145;49.902;8.680;'2023-05-12 14:03:06';99970;;;17;50
30343;BME280;17145;49.902;8.680;'2023-05-12 14:05:33';99970;;;16;49
30343;BME280;17145;49.902;8.680;'2023-05-12 14:08:07';99970;;;16;49
30343;BME280;17145;49.902;8.680;'2023-05-12 14:10:34';99970;;;16;49
30343;BME280;17145;49.902;8.680;'2023-05-12 14:13:02';99980;;;16;49
30343;BME280;17145;49.902;8.680;'2023-05-12 14:15:30';99980;;;16;49
30343;BME280;17145;49.902;8.680;'2023-05-12 14:17:57';99980;;;16;50
30343;BME280;17145;49.902;8.680;'2023-05-12 14:20:25';99980;;;16;50
30343;BME280;17145;49.902;8.680;'2023-05-12 14:22:53';99980;;;16;49
30343;BME280;17145;49.902;8.680;'2023-05-12 14:25:21';99980;;;16;49
30343;BME280;17145;49.902;8.680;'2023-05-12 14:27:48';99980;;;16;50
30343;BME280;17145;49.902;8.680;'2023-05-12 14:30:15';99990;;;16;49
30343;BME280;17145;49.902;8.680;'2023-05-12 14:32:44';99990;;;16;50
30343;BME280;17145;49.902;8.680;'2023-05-12 14:35:11';99990;;;17;50
30343;BME280;17145;49.902;8.680;'2023-05-12 14:37:39';99990;;;17;50
30343;BME280;17145;49.902;8.680;'2023-05-12 14:40:08';99990;;;16;49
30343;BME280;17145;49.902;8.680;'2023-05-12 14:42:37';99990;;;16;50
30343;BME280;17145;49.902;8.680;'2023-05-12 14:45:05';99990;;;16;51
30343;BME280;17145;49.902;8.680;'2023-05-12 14:47:33';100000;;;16;51
30343;BME280;17145;49.902;8.680;'2023-05-12 14:50:00';99990;;;16;51
30343;BME280;17145;49.902;8.680;'2023-05-12 14:52:28';100000;;;16;51
30343;BME280;17145;49.902;8.680;'2023-05-12 14:54:55';100000;;;16;51
30343;BME280;17145;49.902;8.680;'2023-05-12 14:57:23';100000;;;16;52
30343;BME280;17145;49.902;8.680;'2023-05-12 14:59:50';100000;;;16;52
30343;BME280;17145;49.902;8.680;'2023-05-12 15:02:18';100000;;;16;52
30343;BME280;17145;49.902;8.680;'2023-05-12 15:04:45';99990;;;16;52
30343;BME280;17145;49.902;8.680;'2023-05-12 15:07:12';100000;;;16;52
30343;BME280;17145;49.902;8.680;'2023-05-12 15:09:40';100000;;;16;52
30343;BME280;17145;49.902;8.680;'2023-05-12 15:12:07';100000;;;16;52
30343;BME280;17145;49.902;8.680;'2023-05-12 15:14:35';100000;;;16;53
30343;BME280;17145;49.902;8.680;'2023-05-12 15:17:03';100000;;;16;52
30343;BME280;17145;49.902;8.680;'2023-05-12 15:19:30';99990;;;16;51
30343;BME280;17145;49.902;8.680;'2023-05-12 15:21:57';100000;;;16;51
30343;BME280;17145;49.902;8.680;'2023-05-12 15:24:25';100000;;;16;51
30343;BME280;17145;49.902;8.680;'2023-05-12 15:26:52';99990;;;16;50
30343;BME280;17145;49.902;8.680;'2023-05-12 15:29:20';99990;;;17;51
30343;BME280;17145;49.902;8.680;'2023-05-12 15:31:47';99990;;;17;51
30343;BME280;17145;49.902;8.680;'2023-05-12 15:34:14';99990;;;17;51
30343;BME280;17145;49.902;8.680;'2023-05-12 15:36:42';99990;;;17;50
30343;BME280;17145;49.902;8.680;'2023-05-12 15:39:09';99990;;;17;49
30343;BME280;17145;49.902;8.680;'2023-05-12 15:41:37';99990;;;17;49
30343;BME280;17145;49.902;8.680;'2023-05-12 15:44:04';99990;;;17;47
30343;BME280;17145;49.902;8.680;'2023-05-12 15:46:32';99990;;;17;48
30343;BME280;17145;49.902;8.680;'2023-05-12 15:48:59';99990;;;17;48
30343;BME280;17145;49.902;8.680;'2023-05-12 15:51:26';99990;;;18;48
30343;BME280;17145;49.902;8.680;'2023-05-12 15:53:54';99990;;;17;48
30343;BME280;17145;49.902;8.680;'2023-05-12 15:56:21';99990;;;17;48
30343;BME280;17145;49.902;8.680;'2023-05-12 15:58:49';99990;;;17;48
30343;BME280;17145;49.902;8.680;'2023-05-12 16:01:16';100000;;;17;48
30343;BME280;17145;49.902;8.680;'2023-05-12 16:03:44';100000;;;17;47
30343;BME280;17145;49.902;8.680;'2023-05-12 16:06:11';100000;;;17;48
30343;BME280;17145;49.902;8.680;'2023-05-12 16:08:38';100000;;;17;47
30343;BME280;17145;49.902;8.680;'2023-05-12 16:11:07';100000;;;17;48
30343;BME280;17145;49.902;8.680;'2023-05-12 16:13:34';100000;;;17;49
30343;BME280;17145;49.902;8.680;'2023-05-12 16:16:02';100000;;;17;49
30343;BME280;17145;49.902;8.680;'2023-05-12 16:18:30';100000;;;17;50
30343;BME280;17145;49.902;8.680;'2023-05-12 16:20:58';100000;;;17;50
30343;BME280;17145;49.902;8.680;'2023-05-12 16:23:25';100000;;;17;50
30343;BME280;17145;49.902;8.680;'2023-05-12 16:25:52';100000;;;17;50